FranceFixed distance
Ultra Trail des Géants - Trail des Petrels
15 May2026
Distance
46km
Finishers
864603 men261 women
Winning time
5:06:42h
Median pace
4.65km/h
Pace distribution
864 finishers · 2.76–9.00 km/h · mean 4.77
Every finisher ran the same 46 km course, so these paces are directly comparable.
Histogram of finisher pace. 864 finishers ranged from 2.76 to 9.00 kilometres per hour, with a mean of 4.77 and a median of 4.65. The busiest band is 4.0 to 4.5 kilometres per hour, with 178 finishers.
Results
Ranks 751–800 of 864
| Rank | Runner | Time | Pace | Cat. | Placing |
|---|---|---|---|---|---|
| 751 | Touche, BenoitFranceMan Club Manikou Organisat... | 12:41:17h | 3.63 | M60 | 538th M · 22nd M60 |
| 752 | Logeais, DorotheeFranceWoman | 12:41:34h | 3.62 | W40 | 214th F · 34th W40 |
| 753 | Lafosse, JessicaFranceWoman LA Montagne Athletisme | 12:41:40h | 3.62 | W40 | 215th F · 35th W40 |
| 754 | Brigitte, Marie-DeniseFranceWoman Club Manikou Organisat... | 12:42:57h | 3.62 | W60 | 216th F · 5th W60 |
| 755 | Adam, ArthurFranceMan | 12:43:17h | 3.62 | M23 | 539th M · 197th M23 |
| 756 | Cadar, EvodieFranceWoman | 12:43:33h | 3.62 | W35 | 217th F · 30th W35 |
| 757 | Cadar, FabriceFranceMan | 12:43:35h | 3.62 | M23 | 540th M · 198th M23 |
| 758 | Mamoodjee, SamirFranceMan | 12:45:15h | 3.61 | M23 | 541st M · 199th M23 |
| 759 | Fontaine, AxelFranceMan | 12:45:37h | 3.60 | M35 | 542nd M · 95th M35 |
| 760 | Thazar, FrederiqueFranceMan Ouest Trail Reunion | 12:46:34h | 3.60 | M50 | 543rd M · 48th M50 |
| 761 | Veneault, MarineFranceWoman | 12:47:42h | 3.60 | W23 | 218th F · 80th W23 |
| 762 | Begel, HerveFranceMan | 12:49:02h | 3.59 | M55 | 544th M · 27th M55 |
| 763 | Masseaux, OlivierFranceMan | 12:49:29h | 3.59 | MU23 | 545th M · 24th MU23 |
| 764 | Lebon, NadineFranceWoman | 12:50:10h | 3.58 | W55 | 219th F · 15th W55 |
| 765 | Indiana, AlexandreFranceMan | 12:53:31h | 3.57 | M23 | 546th M · 200th M23 |
| 765 | Pastol, DavidFranceMan | 12:53:31h | 3.57 | M50 | 546th M · 49th M50 |
| 767 | Estrade, JordiFranceMan | 12:55:38h | 3.56 | M35 | 548th M · 96th M35 |
| 768 | Courault, CelineFranceWoman | 12:55:43h | 3.56 | W45 | 220th F · 28th W45 |
| 769 | Fruteau de Laclos, Max-AurelienFranceMan | 12:56:01h | 3.56 | M23 | 549th M · 201st M23 |
| 770 | Cadi, PaulFranceMan | 12:57:44h | 3.55 | M50 | 550th M · 50th M50 |
| 771 | Martineau, AnneFranceWoman | 12:58:37h | 3.54 | W40 | 221st F · 36th W40 |
| 771 | Martineau, GregoryFranceMan | 12:58:37h | 3.54 | M40 | 551st M · 65th M40 |
| 773 | Jonathan, ChampyFranceMan | 13:02:18h | 3.53 | M35 | 552nd M · 97th M35 |
| 774 | Chan Chit Sang, DamienFranceMan | 13:03:02h | 3.52 | M23 | 553rd M · 202nd M23 |
| 775 | Boulanger Carpanin, JeremyFranceMan | 13:03:04h | 3.52 | M23 | 554th M · 203rd M23 |
| 776 | Tauran, LucasFranceMan | 13:05:40h | 3.51 | M23 | 555th M · 204th M23 |
| 777 | Revel, Jean-FredericFranceMan | 13:06:02h | 3.51 | M40 | 556th M · 66th M40 |
| 778 | Thomas, HugoFranceMan | 13:06:05h | 3.51 | M23 | 557th M · 205th M23 |
| 779 | Roselyne, LamyFranceWoman | 13:06:12h | 3.51 | W45 | 222nd F · 29th W45 |
| 780 | Melisse, RobertFranceMan | 13:06:17h | 3.51 | M60 | 558th M · 23rd M60 |
| 781 | Puylaurent, Julius-MerceyFranceMan | 13:06:26h | 3.51 | M50 | 559th M · 51st M50 |
| 782 | Goury, PatrickFranceMan | 13:07:11h | 3.51 | M55 | 560th M · 28th M55 |
| 783 | Lon Mon Poy, MarinelleFranceWoman | 13:08:16h | 3.50 | W45 | 223rd F · 30th W45 |
| 784 | Henriette, HmalokoFranceWoman | 13:10:57h | 3.49 | W35 | 224th F · 31st W35 |
| 785 | Fiombea, CedricFranceMan | 13:12:07h | 3.48 | M40 | 561st M · 67th M40 |
| 786 | Lauret, VirginieFranceWoman | 13:12:08h | 3.48 | W35 | 225th F · 32nd W35 |
| 787 | Racine, CedricFranceMan | 13:12:55h | 3.48 | M35 | 562nd M · 98th M35 |
| 788 | Lauret, VincentFranceMan | 13:13:11h | 3.48 | M55 | 563rd M · 29th M55 |
| 789 | Cadet, OlivierFranceMan | 13:13:12h | 3.48 | M35 | 564th M · 99th M35 |
| 790 | Remanaly, Jean-MarcFranceMan | 13:14:09h | 3.48 | M45 | 565th M · 52nd M45 |
| 791 | Fruteau de Laclos, BeatriceFranceWoman Team Omnitrail 974 | 13:14:23h | 3.47 | W45 | 226th F · 31st W45 |
| 792 | Edmond, MickaelFranceMan | 13:14:46h | 3.47 | M35 | 566th M · 100th M35 |
| 793 | Bototelau, FabriceFranceMan | 13:15:02h | 3.47 | M50 | 567th M · 52nd M50 |
| 793 | Ivoula, MichaelFranceMan | 13:15:02h | 3.47 | M50 | 567th M · 52nd M50 |
| 795 | Desire, DanieleFranceWoman | 13:16:28h | 3.46 | W60 | 227th F · 6th W60 |
| 796 | Daoudi, JamelFranceMan | 13:17:21h | 3.46 | M50 | 569th M · 54th M50 |
| 797 | Azelie, LaurentFranceMan | 13:17:41h | 3.46 | M45 | 570th M · 53rd M45 |
| 798 | Cadet, AlainFranceMan | 13:19:35h | 3.45 | M50 | 571st M · 55th M50 |
| 799 | Saint-Louis-Augustin, IreneFranceWoman | 13:19:52h | 3.45 | W70 | 228th F · 1st W70 |
| 800 | Ludovic, AniseFranceWoman | 13:20:59h | 3.45 | W60 | 229th F · 7th W60 |
- 751Touche, BenoitFranceManClub Manikou Organisat...538th M · 22nd M60Time12:41:17hPace3.63Cat.M60
- 752Logeais, DorotheeFranceWoman214th F · 34th W40Time12:41:34hPace3.62Cat.W40
- 753Lafosse, JessicaFranceWomanLA Montagne Athletisme215th F · 35th W40Time12:41:40hPace3.62Cat.W40
- 754Brigitte, Marie-DeniseFranceWomanClub Manikou Organisat...216th F · 5th W60Time12:42:57hPace3.62Cat.W60
- 755Adam, ArthurFranceMan539th M · 197th M23Time12:43:17hPace3.62Cat.M23
- 756Cadar, EvodieFranceWoman217th F · 30th W35Time12:43:33hPace3.62Cat.W35
- 757Cadar, FabriceFranceMan540th M · 198th M23Time12:43:35hPace3.62Cat.M23
- 758Mamoodjee, SamirFranceMan541st M · 199th M23Time12:45:15hPace3.61Cat.M23
- 759Fontaine, AxelFranceMan542nd M · 95th M35Time12:45:37hPace3.60Cat.M35
- 760Thazar, FrederiqueFranceManOuest Trail Reunion543rd M · 48th M50Time12:46:34hPace3.60Cat.M50
- 761Veneault, MarineFranceWoman218th F · 80th W23Time12:47:42hPace3.60Cat.W23
- 762Begel, HerveFranceMan544th M · 27th M55Time12:49:02hPace3.59Cat.M55
- 763Masseaux, OlivierFranceMan545th M · 24th MU23Time12:49:29hPace3.59Cat.MU23
- 764Lebon, NadineFranceWoman219th F · 15th W55Time12:50:10hPace3.58Cat.W55
- 765Indiana, AlexandreFranceMan546th M · 200th M23Time12:53:31hPace3.57Cat.M23
- 765Pastol, DavidFranceMan546th M · 49th M50Time12:53:31hPace3.57Cat.M50
- 767Estrade, JordiFranceMan548th M · 96th M35Time12:55:38hPace3.56Cat.M35
- 768Courault, CelineFranceWoman220th F · 28th W45Time12:55:43hPace3.56Cat.W45
- 769Fruteau de Laclos, Max-AurelienFranceMan549th M · 201st M23Time12:56:01hPace3.56Cat.M23
- 770Cadi, PaulFranceMan550th M · 50th M50Time12:57:44hPace3.55Cat.M50
- 771Martineau, AnneFranceWoman221st F · 36th W40Time12:58:37hPace3.54Cat.W40
- 771Martineau, GregoryFranceMan551st M · 65th M40Time12:58:37hPace3.54Cat.M40
- 773Jonathan, ChampyFranceMan552nd M · 97th M35Time13:02:18hPace3.53Cat.M35
- 774Chan Chit Sang, DamienFranceMan553rd M · 202nd M23Time13:03:02hPace3.52Cat.M23
- 775Boulanger Carpanin, JeremyFranceMan554th M · 203rd M23Time13:03:04hPace3.52Cat.M23
- 776Tauran, LucasFranceMan555th M · 204th M23Time13:05:40hPace3.51Cat.M23
- 777Revel, Jean-FredericFranceMan556th M · 66th M40Time13:06:02hPace3.51Cat.M40
- 778Thomas, HugoFranceMan557th M · 205th M23Time13:06:05hPace3.51Cat.M23
- 779Roselyne, LamyFranceWoman222nd F · 29th W45Time13:06:12hPace3.51Cat.W45
- 780Melisse, RobertFranceMan558th M · 23rd M60Time13:06:17hPace3.51Cat.M60
- 781Puylaurent, Julius-MerceyFranceMan559th M · 51st M50Time13:06:26hPace3.51Cat.M50
- 782Goury, PatrickFranceMan560th M · 28th M55Time13:07:11hPace3.51Cat.M55
- 783Lon Mon Poy, MarinelleFranceWoman223rd F · 30th W45Time13:08:16hPace3.50Cat.W45
- 784Henriette, HmalokoFranceWoman224th F · 31st W35Time13:10:57hPace3.49Cat.W35
- 785Fiombea, CedricFranceMan561st M · 67th M40Time13:12:07hPace3.48Cat.M40
- 786Lauret, VirginieFranceWoman225th F · 32nd W35Time13:12:08hPace3.48Cat.W35
- 787Racine, CedricFranceMan562nd M · 98th M35Time13:12:55hPace3.48Cat.M35
- 788Lauret, VincentFranceMan563rd M · 29th M55Time13:13:11hPace3.48Cat.M55
- 789Cadet, OlivierFranceMan564th M · 99th M35Time13:13:12hPace3.48Cat.M35
- 790Remanaly, Jean-MarcFranceMan565th M · 52nd M45Time13:14:09hPace3.48Cat.M45
- 791Fruteau de Laclos, BeatriceFranceWomanTeam Omnitrail 974226th F · 31st W45Time13:14:23hPace3.47Cat.W45
- 792Edmond, MickaelFranceMan566th M · 100th M35Time13:14:46hPace3.47Cat.M35
- 793Bototelau, FabriceFranceMan567th M · 52nd M50Time13:15:02hPace3.47Cat.M50
- 793Ivoula, MichaelFranceMan567th M · 52nd M50Time13:15:02hPace3.47Cat.M50
- 795Desire, DanieleFranceWoman227th F · 6th W60Time13:16:28hPace3.46Cat.W60
- 796Daoudi, JamelFranceMan569th M · 54th M50Time13:17:21hPace3.46Cat.M50
- 797Azelie, LaurentFranceMan570th M · 53rd M45Time13:17:41hPace3.46Cat.M45
- 798Cadet, AlainFranceMan571st M · 55th M50Time13:19:35hPace3.45Cat.M50
- 799Saint-Louis-Augustin, IreneFranceWoman228th F · 1st W70Time13:19:52hPace3.45Cat.W70
- 800Ludovic, AniseFranceWoman229th F · 7th W60Time13:20:59hPace3.45Cat.W60
Showing ranks 751–800 of 864